Terminal Aerodrome Forecast
Issued by NWS

Home | Current Version | Previous Version | Graphics & Text | Print | Product List | Glossary On
Versions: 1 2 3 4 5 6 7 8 9 10 11 12 13 14 15 16
441
FTUS43 KGRB 261720
TAFATW
TAF
KATW 261720Z 2618/2718 24007KT P6SM BKN050
     FM262300 23005KT P6SM SCT100 SCT250
     FM270800 27003KT P6SM VCSH SCT070 BKN120
      TEMPO 2708/2712 5SM BR
     FM271400 30004KT P6SM VCSH SCT060 OVC120=

USA.gov is the U.S. government's official web portal to all federal, state and local government web resources and services.